Time;durP1;ratioP1;P1;durP2;ratioP2;P2;SDS_P1;SDS_P2;PMS_P1;PMS_P2;Temp;Humidity;BMP_temperature;BMP_pressure;BME280_temperature;BME280_humidity;BME280_pressure;Samples;Min_cycle;Max_cycle;Signal;HPM_P1;HPM_P2
2022/01/05 07:15:03;;;;;;;;;;;21.40;52.70;;;;;;3062595;29;19926;-90
2022/01/05 07:16:35;;;;;;;;;;;21.40;52.90;;;;;;3060319;28;20019;-91
2022/01/05 07:18:07;;;;;;;;;;;21.40;53.10;;;;;;3074730;29;20025;-91
2022/01/05 07:19:39;;;;;;;;;;;21.50;54.00;;;;;;3073006;28;20409;-88
2022/01/05 07:21:11;;;;;;;;;;;21.50;53.50;;;;;;3064270;28;19927;-91
2022/01/05 07:22:43;;;;;;;;;;;21.60;54.30;;;;;;3063387;28;19927;-89
2022/01/05 07:24:17;;;;;;;;;;;21.60;54.30;;;;;;3074994;28;19933;-89
2022/01/05 07:25:49;;;;;;;;;;;21.60;54.30;;;;;;3076265;28;20059;-92
2022/01/05 07:27:21;;;;;;;;;;;21.60;53.70;;;;;;3076025;28;19926;-91
2022/01/05 07:28:53;;;;;;;;;;;21.70;53.80;;;;;;3080953;29;19933;-91
2022/01/05 07:30:27;;;;;;;;;;;21.70;54.30;;;;;;3063874;29;19941;-90
2022/01/05 07:31:59;;;;;;;;;;;21.70;53.50;;;;;;3070256;28;20717;-90
2022/01/05 07:33:36;;;;;;;;;;;21.70;53.30;;;;;;3070336;28;19965;-92
2022/01/05 07:35:12;;;;;;;;;;;21.70;53.30;;;;;;3071788;29;20006;-92
2022/01/05 07:36:44;;;;;;;;;;;21.60;54.30;;;;;;3075852;28;20387;-92
2022/01/05 07:38:16;;;;;;;;;;;21.70;54.60;;;;;;3077051;28;19982;-89
2022/01/05 07:40:00;;;;;;;;;;;21.70;54.60;;;;;;3080272;28;20002;-92
2022/01/05 07:41:35;;;;;;;;;;;21.70;54.30;;;;;;3075413;28;19931;-91
2022/01/05 07:43:07;;;;;;;;;;;21.80;55.00;;;;;;3078254;28;19933;-90
2022/01/05 07:45:04;;;;;;;;;;;21.80;55.10;;;;;;3079406;29;19927;-93
2022/01/05 07:46:39;;;;;;;;;;;21.80;55.90;;;;;;3066420;28;19926;-91
2022/01/05 07:48:12;;;;;;;;;;;21.80;55.60;;;;;;3076084;29;20422;-90
2022/01/05 12:34:15;;;;;;;;;;;22.80;51.30;;;;;;3060081;29;19934;-92
2022/01/05 12:35:47;;;;;;;;;;;23.00;50.20;;;;;;3066501;28;19927;-91
2022/01/05 12:37:41;;;;;;;;;;;23.10;50.90;;;;;;3063934;29;19927;-89
2022/01/05 12:39:13;;;;;;;;;;;23.20;51.20;;;;;;3066078;29;19978;-88
2022/01/05 12:40:46;;;;;;;;;;;23.20;51.30;;;;;;3062166;29;19931;-90
2022/01/05 12:42:21;;;;;;;;;;;23.30;51.10;;;;;;3059602;29;19933;-92
2022/01/05 12:43:53;;;;;;;;;;;23.30;51.10;;;;;;3055881;29;19990;-94
2022/01/05 12:45:43;;;;;;;;;;;23.30;51.30;;;;;;3053743;29;19935;-90
2022/01/05 12:47:16;;;;;;;;;;;23.30;51.50;;;;;;3052283;29;19937;-93
2022/01/05 12:49:10;;;;;;;;;;;23.30;52.20;;;;;;3056913;29;19927;-90
2022/01/05 12:50:50;;;;;;;;;;;23.30;51.90;;;;;;3058469;29;20451;-93
2022/01/05 12:52:23;;;;;;;;;;;23.30;52.50;;;;;;3057112;28;19934;-93
2022/01/05 15:08:36;;;;;;;;;;;22.30;52.30;;;;;;3060404;29;19937;-85
2022/01/05 15:10:08;;;;;;;;;;;22.40;52.40;;;;;;3061631;29;20171;-86
2022/01/05 15:11:39;;;;;;;;;;;22.50;52.80;;;;;;3061175;29;20400;-88
2022/01/05 15:13:12;;;;;;;;;;;22.50;52.60;;;;;;3062139;28;19930;-85
2022/01/05 15:14:43;;;;;;;;;;;22.60;52.80;;;;;;3065462;29;19931;-90
2022/01/05 15:16:15;;;;;;;;;;;22.60;53.00;;;;;;3063691;28;19927;-87
2022/01/05 15:17:47;;;;;;;;;;;22.60;53.20;;;;;;3063486;29;20459;-84
2022/01/05 15:19:18;;;;;;;;;;;22.60;53.60;;;;;;3064478;29;19927;-86
2022/01/05 15:20:52;;;;;;;;;;;22.60;54.00;;;;;;3064903;29;20011;-89
2022/01/05 15:22:24;;;;;;;;;;;22.60;54.00;;;;;;3064987;28;20156;-87
2022/01/05 15:23:57;;;;;;;;;;;22.50;54.00;;;;;;3064525;29;19934;-87
2022/01/05 15:25:29;;;;;;;;;;;22.40;54.10;;;;;;3065288;29;20393;-87
2022/01/05 15:27:00;;;;;;;;;;;22.30;54.10;;;;;;3072565;28;19978;-87
2022/01/05 15:28:32;;;;;;;;;;;22.20;54.00;;;;;;3065401;29;20332;-85
2022/01/05 15:30:04;;;;;;;;;;;22.20;54.10;;;;;;3059914;29;19960;-88
2022/01/05 15:31:36;;;;;;;;;;;22.20;53.70;;;;;;3063591;28;20376;-88
2022/01/05 15:33:08;;;;;;;;;;;22.30;53.80;;;;;;3066688;29;20033;-89
2022/01/05 15:34:39;;;;;;;;;;;22.30;53.70;;;;;;3063028;29;19927;-88
2022/01/05 15:36:11;;;;;;;;;;;22.40;53.90;;;;;;3060558;29;20387;-88
2022/01/05 15:37:43;;;;;;;;;;;22.40;54.10;;;;;;3058721;29;19923;-88
2022/01/05 15:39:16;;;;;;;;;;;22.50;54.40;;;;;;3064433;29;19935;-89
2022/01/05 15:40:48;;;;;;;;;;;22.60;54.10;;;;;;3064651;29;19927;-88
2022/01/05 15:42:19;;;;;;;;;;;22.70;54.30;;;;;;3063442;29;19982;-88
2022/01/05 15:43:53;;;;;;;;;;;22.80;53.90;;;;;;3065057;29;19982;-90
2022/01/05 15:45:25;;;;;;;;;;;22.80;54.20;;;;;;3063294;29;23177;-85
2022/01/05 15:46:57;;;;;;;;;;;22.80;54.30;;;;;;3063120;29;19927;-89
2022/01/05 15:48:28;;;;;;;;;;;22.80;54.10;;;;;;3064946;29;19933;-88
2022/01/05 15:50:00;;;;;;;;;;;22.80;54.50;;;;;;3064137;29;19933;-87
2022/01/05 15:51:32;;;;;;;;;;;22.80;54.50;;;;;;3063871;29;19931;-88
2022/01/05 15:53:03;;;;;;;;;;;22.80;54.30;;;;;;3062940;29;20387;-87
2022/01/05 15:54:40;;;;;;;;;;;22.90;54.10;;;;;;3063548;29;20415;-88
2022/01/05 15:56:17;;;;;;;;;;;22.90;54.10;;;;;;3063855;29;19933;-88
2022/01/05 15:57:55;;;;;;;;;;;23.00;54.20;;;;;;3063279;29;19936;-87
2022/01/05 16:01:21;;;;;;;;;;;22.90;54.20;;;;;;3052854;29;19927;-86
2022/01/05 16:02:53;;;;;;;;;;;22.90;53.90;;;;;;3052161;29;20287;-87
2022/01/05 16:04:25;;;;;;;;;;;22.80;54.00;;;;;;3052435;29;20303;-90
2022/01/05 16:05:57;;;;;;;;;;;22.80;54.30;;;;;;3052432;29;19931;-89
2022/01/05 16:07:28;;;;;;;;;;;22.90;54.50;;;;;;3061038;29;19931;-90
2022/01/05 16:09:00;;;;;;;;;;;22.90;54.00;;;;;;3066796;28;19931;-90
2022/01/05 16:10:33;;;;;;;;;;;22.80;53.60;;;;;;3063565;29;20045;-88
2022/01/05 16:12:05;;;;;;;;;;;22.80;53.20;;;;;;3063308;29;19930;-89
2022/01/05 16:13:37;;;;;;;;;;;22.70;53.10;;;;;;3064033;29;19933;-91
2022/01/05 16:15:09;;;;;;;;;;;22.70;53.00;;;;;;3065686;28;19928;-93
2022/01/05 16:16:41;;;;;;;;;;;22.70;53.50;;;;;;3068325;29;19971;-90
2022/01/05 16:18:15;;;;;;;;;;;22.70;54.20;;;;;;3061805;29;20368;-92
2022/01/05 16:19:47;;;;;;;;;;;22.70;54.20;;;;;;3070878;29;19923;-91
2022/01/05 16:21:19;;;;;;;;;;;22.90;54.30;;;;;;3066138;29;19931;-92
2022/01/05 16:22:51;;;;;;;;;;;22.90;54.20;;;;;;3067761;28;19935;-93
2022/01/05 16:24:24;;;;;;;;;;;22.90;54.70;;;;;;3066487;29;19955;-90
2022/01/05 16:26:00;;;;;;;;;;;22.90;55.00;;;;;;3053693;29;19931;-90
2022/01/05 16:27:31;;;;;;;;;;;22.80;54.90;;;;;;3055402;29;19927;-92
2022/01/05 16:29:03;;;;;;;;;;;22.80;55.40;;;;;;3060686;29;19927;-89
2022/01/05 16:30:35;;;;;;;;;;;22.80;56.50;;;;;;3065119;29;19930;-90
2022/01/05 16:32:07;;;;;;;;;;;22.80;56.40;;;;;;3065173;28;19923;-90
2022/01/05 16:33:39;;;;;;;;;;;22.80;56.70;;;;;;3064732;29;19974;-91
2022/01/05 16:35:11;;;;;;;;;;;22.80;56.50;;;;;;3061316;29;19982;-90
2022/01/05 16:36:43;;;;;;;;;;;22.80;56.70;;;;;;3068310;28;19975;-91
2022/01/05 16:38:15;;;;;;;;;;;22.70;56.90;;;;;;3070331;29;19934;-90
2022/01/05 16:39:49;;;;;;;;;;;22.70;57.10;;;;;;3068470;29;19927;-94
2022/01/05 16:41:22;;;;;;;;;;;22.70;57.80;;;;;;3065971;29;19927;-90
2022/01/05 16:44:47;;;;;;;;;;;22.80;58.20;;;;;;3063070;29;20010;-91
2022/01/05 16:46:21;;;;;;;;;;;22.70;57.30;;;;;;3065208;29;19974;-91
2022/01/05 16:47:53;;;;;;;;;;;22.80;56.20;;;;;;3064717;29;19933;-89
2022/01/05 16:49:25;;;;;;;;;;;22.80;56.00;;;;;;3069308;28;19931;-87
2022/01/05 16:50:57;;;;;;;;;;;22.80;55.80;;;;;;3065502;29;19927;-90
2022/01/05 16:52:28;;;;;;;;;;;22.80;54.90;;;;;;3062655;28;19935;-89
2022/01/05 16:54:01;;;;;;;;;;;22.70;54.00;;;;;;3065180;29;19930;-92
2022/01/05 16:55:38;;;;;;;;;;;22.70;54.80;;;;;;3066843;29;19915;-92
2022/01/05 17:01:12;;;;;;;;;;;22.70;55.10;;;;;;3057431;29;19927;-89
2022/01/05 17:02:43;;;;;;;;;;;22.70;54.90;;;;;;3063302;29;19926;-91
2022/01/05 17:04:15;;;;;;;;;;;22.60;54.80;;;;;;3064280;29;20342;-92
2022/01/05 17:05:47;;;;;;;;;;;22.60;54.80;;;;;;3066825;29;19933;-90
2022/01/05 17:07:19;;;;;;;;;;;22.60;54.80;;;;;;3065618;28;19927;-90
2022/01/05 17:08:51;;;;;;;;;;;22.60;54.80;;;;;;3066234;29;19981;-90
2022/01/05 17:10:23;;;;;;;;;;;22.50;54.70;;;;;;3065531;29;19926;-90
2022/01/05 17:11:55;;;;;;;;;;;22.50;54.70;;;;;;3065397;29;19970;-90
2022/01/05 17:13:27;;;;;;;;;;;22.50;54.70;;;;;;3065102;29;19934;-90
2022/01/05 17:15:00;;;;;;;;;;;22.50;54.60;;;;;;3063459;29;19927;-89
2022/01/05 17:16:31;;;;;;;;;;;22.50;54.50;;;;;;3059853;29;19935;-91
2022/01/05 17:18:03;;;;;;;;;;;22.50;54.40;;;;;;3060789;29;19927;-89
2022/01/05 17:19:37;;;;;;;;;;;22.50;54.20;;;;;;3061361;29;23689;-89
2022/01/05 17:21:09;;;;;;;;;;;22.50;54.10;;;;;;3062315;29;19934;-90
2022/01/05 17:22:41;;;;;;;;;;;22.50;54.00;;;;;;3057632;28;20341;-90
2022/01/05 17:24:12;;;;;;;;;;;22.40;53.90;;;;;;3060184;29;19927;-92
2022/01/05 17:25:44;;;;;;;;;;;22.40;53.50;;;;;;3063052;29;19927;-91
2022/01/05 17:27:16;;;;;;;;;;;22.40;54.20;;;;;;3066265;28;19935;-94
2022/01/05 17:28:48;;;;;;;;;;;22.40;54.70;;;;;;3060703;29;19926;-92
2022/01/05 17:30:21;;;;;;;;;;;22.40;55.20;;;;;;3062239;29;20348;-91
2022/01/05 17:31:53;;;;;;;;;;;22.40;55.80;;;;;;3062071;28;19974;-92
2022/01/05 17:33:24;;;;;;;;;;;22.40;56.00;;;;;;3065366;29;19927;-94
2022/01/05 17:34:56;;;;;;;;;;;22.40;56.00;;;;;;3063610;29;20435;-93
2022/01/05 17:36:28;;;;;;;;;;;22.50;56.40;;;;;;3062918;29;20354;-93
2022/01/05 17:38:02;;;;;;;;;;;22.50;56.30;;;;;;3067899;28;19950;-92
2022/01/05 17:39:34;;;;;;;;;;;22.50;56.40;;;;;;3070591;28;19938;-91
2022/01/05 17:41:06;;;;;;;;;;;22.50;56.50;;;;;;3063144;29;19927;-87
2022/01/05 17:42:38;;;;;;;;;;;22.50;57.00;;;;;;3063569;28;20435;-91
2022/01/05 17:44:09;;;;;;;;;;;22.40;57.20;;;;;;3062582;29;19934;-91
2022/01/05 17:45:42;;;;;;;;;;;22.40;57.50;;;;;;3066727;29;19965;-92
2022/01/05 17:47:14;;;;;;;;;;;22.40;57.50;;;;;;3062093;28;19982;-89
2022/01/05 17:48:46;;;;;;;;;;;22.40;57.30;;;;;;3061896;29;19927;-91
2022/01/05 17:50:18;;;;;;;;;;;22.40;57.60;;;;;;3064119;28;19927;-92
2022/01/05 17:51:51;;;;;;;;;;;22.50;57.70;;;;;;3072624;28;20277;-90
